createdAt,value
2016-07-08T00:00:40.502Z,53.15
2016-07-08T00:01:40.485Z,53.34
2016-07-08T00:02:39.853Z,53.15
2016-07-08T00:03:40.458Z,53.05
2016-07-08T00:04:40.437Z,53.08
2016-07-08T00:05:40.430Z,53.17
2016-07-08T00:06:40.408Z,52.86
2016-07-08T00:07:40.401Z,53.27
2016-07-08T00:08:40.377Z,52.98
2016-07-08T00:09:40.355Z,52.95
2016-07-08T00:10:40.349Z,53.15
2016-07-08T00:11:40.334Z,53.05
2016-07-08T00:12:40.318Z,53.44
2016-07-08T00:13:39.688Z,53.15
2016-07-08T00:14:40.282Z,53.15
2016-07-08T00:15:40.277Z,53.15
2016-07-08T00:16:40.254Z,53.34
2016-07-08T00:17:40.237Z,53.34
2016-07-08T00:18:40.225Z,53.15
2016-07-08T00:19:40.209Z,53.63
2016-07-08T00:20:40.195Z,53.44
2016-07-08T00:21:40.177Z,53.63
2016-07-08T00:22:40.164Z,53.63
2016-07-08T00:23:40.146Z,53.73
2016-07-08T00:24:39.519Z,53.53
2016-07-08T00:25:40.117Z,53.73
2016-07-08T00:26:40.100Z,53.73
2016-07-08T00:27:40.101Z,53.63
2016-07-08T00:28:39.457Z,53.66
2016-07-08T00:29:40.058Z,53.63
2016-07-08T00:30:40.044Z,53.63
2016-07-08T00:31:40.023Z,53.63
2016-07-08T00:32:40.017Z,53.53
2016-07-08T00:33:40.013Z,53.53
2016-07-08T00:34:39.976Z,53.63
2016-07-08T00:35:39.966Z,53.73
2016-07-08T00:36:39.956Z,53.63
2016-07-08T00:37:39.935Z,53.44
2016-07-08T00:38:39.311Z,53.15
2016-07-08T00:39:39.901Z,53.44
2016-07-08T00:40:39.895Z,53.34
2016-07-08T00:41:39.877Z,53.53
2016-07-08T00:42:39.244Z,53.44
2016-07-08T00:43:39.845Z,53.63
2016-07-08T00:44:39.837Z,53.73
2016-07-08T00:45:39.816Z,53.73
2016-07-08T00:46:39.803Z,53.34
2016-07-08T00:47:39.786Z,53.34
2016-07-08T00:48:39.771Z,53.25
2016-07-08T00:49:39.755Z,53.34
2016-07-08T00:50:39.744Z,53.44
2016-07-08T00:51:39.111Z,53.34
2016-07-08T00:52:39.711Z,53.73
2016-07-08T00:53:39.084Z,53.83
2016-07-08T00:54:39.061Z,53.73
2016-07-08T00:55:39.660Z,53.53
2016-07-08T00:56:39.653Z,53.25
2016-07-08T00:57:39.634Z,53.73
2016-07-08T00:58:39.622Z,53.73
2016-07-08T00:59:39.606Z,53.53
2016-07-08T01:00:39.579Z,53.53
2016-07-08T01:01:39.571Z,53.53
2016-07-08T01:02:39.557Z,53.63
2016-07-08T01:03:39.534Z,53.63
2016-07-08T01:04:39.534Z,53.73
2016-07-08T01:05:39.511Z,53.63
2016-07-08T01:06:39.489Z,53.83
2016-07-08T01:07:39.490Z,53.83
2016-07-08T01:08:39.458Z,53.73
2016-07-08T01:09:39.449Z,53.73
2016-07-08T01:10:39.430Z,53.73
2016-07-08T01:11:39.418Z,53.73
2016-07-08T01:12:39.404Z,53.73
2016-07-08T01:13:39.386Z,53.83
2016-07-08T01:14:39.371Z,53.63
2016-07-08T01:15:39.354Z,53.73
2016-07-08T01:16:39.337Z,53.83
2016-07-08T01:17:39.328Z,53.73
2016-07-08T01:18:39.305Z,53.83
2016-07-08T01:19:38.677Z,53.83
2016-07-08T01:20:39.284Z,53.83
2016-07-08T01:21:38.649Z,53.73
2016-07-08T01:22:38.633Z,53.92
2016-07-08T01:23:39.236Z,53.73
2016-07-08T01:24:39.215Z,53.83
2016-07-08T01:25:39.204Z,53.63
2016-07-08T01:26:39.193Z,53.83
2016-07-08T01:27:39.175Z,53.83
2016-07-08T01:28:39.154Z,53.73
2016-07-08T01:29:39.147Z,53.73
2016-07-08T01:30:39.125Z,53.63
2016-07-08T01:31:39.115Z,53.73
2016-07-08T01:32:39.092Z,53.73
2016-07-08T01:33:39.086Z,53.73
2016-07-08T01:34:39.066Z,53.83
2016-07-08T01:35:39.058Z,53.92
2016-07-08T01:36:39.036Z,54.02
2016-07-08T01:37:39.020Z,53.63
2016-07-08T01:38:38.393Z,53.83
2016-07-08T01:39:38.377Z,53.63
2016-07-08T01:40:38.972Z,53.83
2016-07-08T01:41:38.961Z,53.92
2016-07-08T01:42:38.947Z,53.73
2016-07-08T01:43:38.936Z,53.92
2016-07-08T01:44:38.913Z,53.73
2016-07-08T01:45:38.894Z,54.02
2016-07-08T01:46:38.882Z,53.63
2016-07-08T01:47:38.875Z,53.63
2016-07-08T01:48:38.846Z,53.83
2016-07-08T01:49:38.842Z,53.63
2016-07-08T01:50:38.210Z,53.83
2016-07-08T01:51:38.802Z,54.79
2016-07-08T01:52:38.791Z,54.6
2016-07-08T01:53:38.773Z,54.6
2016-07-08T01:54:38.761Z,53.73
2016-07-08T01:55:38.741Z,53.63
2016-07-08T01:56:38.727Z,53.92
2016-07-08T01:57:38.713Z,53.53
2016-07-08T01:58:38.696Z,53.73
2016-07-08T01:59:38.068Z,53.53
2016-07-08T02:00:38.667Z,53.83
2016-07-08T02:01:38.650Z,53.53
2016-07-08T02:02:38.636Z,53.73
2016-07-08T02:03:38.623Z,53.92
2016-07-08T02:04:38.607Z,54.02
2016-07-08T02:05:38.592Z,53.73
2016-07-08T02:06:38.580Z,54.02
2016-07-08T02:07:38.561Z,53.73
2016-07-08T02:08:38.547Z,54.21
2016-07-08T02:09:38.529Z,54.69
2016-07-08T02:10:37.899Z,54.21
2016-07-08T02:11:38.503Z,54.69
2016-07-08T02:12:38.479Z,54.31
2016-07-08T02:13:38.468Z,53.73
2016-07-08T02:14:38.453Z,54.21
2016-07-08T02:15:38.438Z,54.02
2016-07-08T02:16:38.422Z,54.11
2016-07-08T02:17:38.409Z,53.73
2016-07-08T02:18:38.391Z,54.11
2016-07-08T02:19:38.377Z,54.02
2016-07-08T02:20:38.367Z,54.11
2016-07-08T02:21:38.342Z,53.73
2016-07-08T02:22:38.331Z,54.21
2016-07-08T02:23:38.316Z,54.21
2016-07-08T02:24:38.301Z,53.83
2016-07-08T02:25:38.283Z,54.31
2016-07-08T02:26:38.269Z,54.11
2016-07-08T02:27:38.248Z,54.21
2016-07-08T02:28:38.239Z,54.21
2016-07-08T02:29:38.218Z,54.4
2016-07-08T02:30:38.202Z,53.83
2016-07-08T02:31:38.201Z,54.21
2016-07-08T02:32:38.172Z,54.6
2016-07-08T02:33:38.162Z,54.4
2016-07-08T02:34:38.147Z,54.69
2016-07-08T02:35:38.127Z,54.21
2016-07-08T02:36:38.113Z,54.5
2016-07-08T02:37:38.099Z,54.69
2016-07-08T02:38:38.080Z,54.79
2016-07-08T02:39:38.081Z,54.69
2016-07-08T02:40:38.051Z,53.83
2016-07-08T02:41:38.037Z,54.21
2016-07-08T02:42:38.024Z,54.6
2016-07-08T02:43:38.004Z,54.69
2016-07-08T02:44:37.997Z,54.69
2016-07-08T02:45:37.980Z,54.02
2016-07-08T02:46:37.960Z,54.5
2016-07-08T02:47:37.948Z,54.6
2016-07-08T02:48:37.931Z,54.6
2016-07-08T02:49:37.915Z,54.5
2016-07-08T02:50:37.899Z,54.5
2016-07-08T02:51:37.892Z,54.4
2016-07-08T02:52:37.865Z,54.5
2016-07-08T02:53:37.856Z,54.4
2016-07-08T02:54:37.835Z,54.5
2016-07-08T02:55:37.822Z,54.69
2016-07-08T02:56:37.809Z,54.5
2016-07-08T02:57:37.792Z,54.5
2016-07-08T02:58:37.779Z,54.5
2016-07-08T02:59:37.765Z,54.4
2016-07-08T03:00:37.751Z,54.6
2016-07-08T03:01:37.731Z,54.5
2016-07-08T03:02:37.105Z,54.5
2016-07-08T03:03:37.705Z,54.5
2016-07-08T03:04:37.685Z,54.5
2016-07-08T03:05:37.668Z,54.4
2016-07-08T03:06:37.653Z,54.4
2016-07-08T03:07:37.638Z,54.5
2016-07-08T03:08:37.636Z,54.4
2016-07-08T03:09:37.616Z,54.5
2016-07-08T03:10:37.596Z,54.6
2016-07-08T03:11:37.588Z,54.6
2016-07-08T03:12:37.561Z,54.69
2016-07-08T03:13:37.550Z,54.4
2016-07-08T03:14:37.534Z,54.5
2016-07-08T03:15:37.516Z,54.5
2016-07-08T03:16:37.502Z,54.21
2016-07-08T03:17:37.486Z,54.31
2016-07-08T03:18:36.857Z,54.5
2016-07-08T03:19:37.453Z,54.5
2016-07-08T03:20:36.827Z,54.21
2016-07-08T03:21:37.426Z,54.4
2016-07-08T03:22:37.412Z,54.31
2016-07-08T03:23:37.394Z,54.4
2016-07-08T03:24:37.381Z,54.21
2016-07-08T03:25:37.362Z,54.21
2016-07-08T03:26:37.346Z,54.4
2016-07-08T03:27:37.329Z,54.31
2016-07-08T03:28:37.315Z,54.21
2016-07-08T03:29:37.300Z,54.5
2016-07-08T03:30:37.287Z,54.4
2016-07-08T03:31:37.269Z,54.21
2016-07-08T03:32:37.252Z,54.21
2016-07-08T03:33:37.243Z,54.5
2016-07-08T03:34:37.223Z,54.5
2016-07-08T03:35:37.207Z,54.21
2016-07-08T03:36:37.200Z,54.5
2016-07-08T03:37:37.178Z,54.21
2016-07-08T03:38:37.160Z,54.5
2016-07-08T03:39:37.150Z,54.5
2016-07-08T03:40:36.516Z,54.5
2016-07-08T03:41:37.117Z,54.5
2016-07-08T03:42:37.104Z,54.6
2016-07-08T03:43:37.084Z,54.21
2016-07-08T03:44:37.068Z,54.5
2016-07-08T03:45:37.054Z,54.31
2016-07-08T03:46:37.040Z,54.21
2016-07-08T03:47:37.032Z,54.4
2016-07-08T03:48:37.002Z,54.31
2016-07-08T03:49:37.001Z,54.31
2016-07-08T03:50:36.984Z,54.5
2016-07-08T03:51:36.963Z,54.21
2016-07-08T03:52:36.961Z,54.5
2016-07-08T03:53:36.939Z,54.69
2016-07-08T03:54:36.913Z,54.5
2016-07-08T03:55:36.906Z,54.5
2016-07-08T03:56:36.880Z,54.5
2016-07-08T03:57:36.882Z,54.5
2016-07-08T03:58:36.856Z,54.4
2016-07-08T03:59:36.839Z,54.5
2016-07-08T04:00:36.825Z,54.5
2016-07-08T04:01:36.816Z,54.6
2016-07-08T04:02:36.795Z,54.5
2016-07-08T04:03:36.782Z,54.6
2016-07-08T04:04:36.778Z,54.5
2016-07-08T04:05:36.743Z,54.02
2016-07-08T04:06:36.734Z,54.4
2016-07-08T04:07:36.715Z,54.31
2016-07-08T04:08:36.699Z,54.21
2016-07-08T04:09:36.689Z,54.31
2016-07-08T04:10:36.053Z,54.11
2016-07-08T04:11:36.652Z,54.31
2016-07-08T04:12:36.645Z,54.57
2016-07-08T04:13:36.619Z,54.5
2016-07-08T04:14:36.622Z,54.6
2016-07-08T04:15:35.977Z,54.88
2016-07-08T04:16:36.584Z,54.86
2016-07-08T04:17:36.563Z,54.88
2016-07-08T04:18:36.549Z,54.6
2016-07-08T04:19:36.532Z,54.66
2016-07-08T04:20:36.518Z,54.57
2016-07-08T04:21:36.502Z,54.47
2016-07-08T04:22:36.483Z,54.57
2016-07-08T04:23:35.864Z,54.47
2016-07-08T04:24:35.840Z,54.57
2016-07-08T04:25:36.439Z,54.47
2016-07-08T04:26:36.424Z,54.38
2016-07-08T04:27:36.404Z,54.47
2016-07-08T04:28:36.394Z,54.47
2016-07-08T04:29:36.376Z,54.47
2016-07-08T04:30:36.366Z,54.57
2016-07-08T04:31:36.344Z,54.6
2016-07-08T04:32:36.336Z,54.76
2016-07-08T04:33:36.313Z,54.6
2016-07-08T04:34:36.302Z,54.4
2016-07-08T04:35:36.284Z,54.5
2016-07-08T04:36:36.277Z,54.66
2016-07-08T04:37:35.639Z,54.57
2016-07-08T04:38:36.237Z,54.66
2016-07-08T04:39:36.222Z,54.4
2016-07-08T04:40:36.208Z,54.57
2016-07-08T04:41:35.576Z,54.57
2016-07-08T04:42:36.172Z,54.6
2016-07-08T04:43:36.166Z,54.57
2016-07-08T04:44:36.145Z,54.76
2016-07-08T04:45:36.149Z,55.05
2016-07-08T04:46:36.116Z,54.47
2016-07-08T04:47:36.100Z,54.47
2016-07-08T04:48:35.466Z,54.79
2016-07-08T04:49:36.065Z,54.57
2016-07-08T04:50:36.055Z,54.76
2016-07-08T04:51:36.038Z,54.18
2016-07-08T04:52:36.020Z,54.47
2016-07-08T04:53:36.007Z,54.47
2016-07-08T04:54:35.377Z,54.66
2016-07-08T04:55:35.974Z,54.98
2016-07-08T04:56:35.346Z,54.76
2016-07-08T04:57:35.948Z,54.66
2016-07-08T04:58:35.316Z,54.76
2016-07-08T04:59:35.918Z,54.86
2016-07-08T05:00:35.908Z,54.57
2016-07-08T05:01:35.886Z,54.76
2016-07-08T05:02:35.867Z,54.76
2016-07-08T05:03:35.243Z,54.96
2016-07-08T05:04:35.220Z,54.86
2016-07-08T05:05:35.824Z,54.98
2016-07-08T05:06:35.809Z,54.57
2016-07-08T05:07:35.795Z,55.05
2016-07-08T05:08:35.776Z,54.98
2016-07-08T05:09:35.750Z,54.98
2016-07-08T05:10:35.753Z,54.88
2016-07-08T05:11:35.730Z,54.6
2016-07-08T05:12:35.712Z,54.88
2016-07-08T05:13:35.701Z,54.88
2016-07-08T05:14:35.681Z,54.88
2016-07-08T05:15:35.052Z,55.36
2016-07-08T05:16:35.645Z,54.98
2016-07-08T05:17:35.631Z,55.08
2016-07-08T05:18:35.626Z,55.36
2016-07-08T05:19:35.603Z,55.76
2016-07-08T05:20:35.586Z,55.46
2016-07-08T05:21:35.574Z,55.44
2016-07-08T05:22:34.944Z,55.76
2016-07-08T05:23:34.926Z,55.36
2016-07-08T05:24:35.528Z,55.36
2016-07-08T05:25:35.510Z,55.66
2016-07-08T05:26:35.498Z,55.36
2016-07-08T05:27:35.476Z,55.46
2016-07-08T05:28:35.468Z,55.46
2016-07-08T05:29:34.834Z,55.56
2016-07-08T05:30:35.439Z,55.08
2016-07-08T05:31:35.418Z,55.27
2016-07-08T05:32:35.404Z,56.14
2016-07-08T05:33:35.391Z,55.94
2016-07-08T05:34:35.368Z,55.76
2016-07-08T05:35:35.354Z,55.94
2016-07-08T05:36:35.350Z,55.27
2016-07-08T05:37:34.714Z,55.85
2016-07-08T05:38:34.692Z,55.94
2016-07-08T05:39:35.295Z,55.85
2016-07-08T05:40:35.285Z,55.94
2016-07-08T05:41:35.263Z,56.04
2016-07-08T05:42:35.245Z,56.04
2016-07-08T05:43:34.625Z,56.04
2016-07-08T05:44:35.215Z,56.33
2016-07-08T05:45:34.586Z,55.82
2016-07-08T05:46:35.187Z,55.76
2016-07-08T05:47:35.170Z,55.73
2016-07-08T05:48:35.158Z,55.85
2016-07-08T05:49:35.139Z,55.85
2016-07-08T05:50:35.128Z,55.85
2016-07-08T05:51:35.116Z,55.85
2016-07-08T05:52:35.088Z,55.82
2016-07-08T05:53:35.080Z,55.85
2016-07-08T05:54:35.060Z,56.04
2016-07-08T05:55:35.043Z,55.85
2016-07-08T05:56:35.030Z,55.94
2016-07-08T05:57:34.407Z,56.14
2016-07-08T05:58:35.001Z,55.85
2016-07-08T05:59:34.370Z,55.56
2016-07-08T06:00:34.968Z,55.36
2016-07-08T06:01:34.954Z,56.14
2016-07-08T06:02:34.934Z,56.04
2016-07-08T06:03:34.927Z,55.66
2016-07-08T06:04:34.906Z,55.85
2016-07-08T06:05:34.902Z,55.56
2016-07-08T06:06:34.265Z,55.94
2016-07-08T06:07:34.870Z,55.85
2016-07-08T06:08:34.849Z,55.94
2016-07-08T06:09:34.831Z,56.24
2016-07-08T06:10:34.198Z,55.66
2016-07-08T06:11:34.804Z,55.85
2016-07-08T06:12:34.179Z,56.04
2016-07-08T06:13:34.765Z,55.94
2016-07-08T06:14:34.761Z,56.24
2016-07-08T06:15:34.734Z,55.66
2016-07-08T06:16:34.726Z,55.85
2016-07-08T06:17:34.719Z,56.33
2016-07-08T06:18:34.694Z,55.94
2016-07-08T06:19:34.690Z,56.14
2016-07-08T06:20:34.674Z,56.43
2016-07-08T06:21:34.029Z,55.56
2016-07-08T06:22:34.631Z,56.04
2016-07-08T06:23:34.615Z,55.66
2016-07-08T06:24:33.987Z,55.85
2016-07-08T06:25:34.585Z,55.94
2016-07-08T06:26:34.573Z,55.66
2016-07-08T06:27:34.560Z,55.85
2016-07-08T06:28:34.596Z,55.76
2016-07-08T06:29:34.524Z,56.14
2016-07-08T06:30:34.507Z,56.52
2016-07-08T06:31:34.495Z,56.33
2016-07-08T06:32:34.481Z,56.43
2016-07-08T06:33:34.461Z,56.33
2016-07-08T06:34:34.732Z,56.43
2016-07-08T06:35:34.437Z,56.43
2016-07-08T06:36:34.420Z,56.62
2016-07-08T06:37:34.405Z,56.62
2016-07-08T06:38:34.392Z,56.91
2016-07-08T06:39:34.383Z,56.04
2016-07-08T06:40:34.358Z,56.14
2016-07-08T06:41:34.344Z,56.43
2016-07-08T06:42:33.716Z,56.04
2016-07-08T06:43:34.313Z,55.76
2016-07-08T06:44:34.294Z,55.85
2016-07-08T06:45:34.298Z,56.33
2016-07-08T06:46:34.262Z,56.14
2016-07-08T06:47:34.251Z,55.94
2016-07-08T06:48:34.243Z,56.52
2016-07-08T06:49:34.218Z,56.33
2016-07-08T06:50:34.207Z,56.43
2016-07-08T06:51:33.572Z,55.85
2016-07-08T06:52:34.174Z,56.24
2016-07-08T06:53:34.154Z,56.62
2016-07-08T06:54:34.142Z,55.94
2016-07-08T06:55:34.122Z,56.33
2016-07-08T06:56:34.113Z,56.62
2016-07-08T06:57:34.095Z,56.43
2016-07-08T06:58:34.079Z,56.43
2016-07-08T06:59:34.066Z,56.62
2016-07-08T07:00:34.060Z,55.94
2016-07-08T07:01:34.034Z,55.76
2016-07-08T07:02:34.019Z,55.76
2016-07-08T07:03:33.999Z,55.85
2016-07-08T07:04:33.989Z,56.14
2016-07-08T07:05:33.385Z,56.33
2016-07-08T07:06:33.957Z,56.43
2016-07-08T07:07:33.945Z,56.43
2016-07-08T07:08:33.929Z,56.43
2016-07-08T07:09:33.912Z,56.52
2016-07-08T07:10:33.898Z,56.24
2016-07-08T07:11:33.268Z,55.85
2016-07-08T07:12:33.864Z,56.65
2016-07-08T07:13:33.855Z,55.94
2016-07-08T07:14:33.836Z,56.43
2016-07-08T07:15:33.210Z,56.24
2016-07-08T07:16:33.803Z,56.62
2016-07-08T07:17:33.788Z,56.43
2016-07-08T07:18:33.774Z,56.56
2016-07-08T07:19:33.765Z,56.33
2016-07-08T07:20:33.742Z,56.16
2016-07-08T07:21:33.108Z,56.14
2016-07-08T07:22:33.714Z,56.33
2016-07-08T07:23:33.697Z,56.24
2016-07-08T07:24:33.070Z,56.43
2016-07-08T07:25:33.667Z,56.07
2016-07-08T07:26:33.650Z,55.98
2016-07-08T07:27:33.022Z,56.36
2016-07-08T07:28:33.672Z,56.07
2016-07-08T07:29:33.607Z,56.36
2016-07-08T07:30:33.595Z,56.43
2016-07-08T07:31:33.578Z,56.43
2016-07-08T07:32:33.569Z,56.46
2016-07-08T07:33:32.927Z,56.94
2016-07-08T07:34:33.535Z,57.14
2016-07-08T07:35:33.511Z,57.04
2016-07-08T07:36:33.496Z,56.94
2016-07-08T07:37:33.484Z,56.52
2016-07-08T07:38:33.467Z,56.36
2016-07-08T07:39:33.460Z,56.52
2016-07-08T07:40:33.439Z,56.36
2016-07-08T07:41:33.419Z,56.36
2016-07-08T07:42:33.407Z,56.84
2016-07-08T07:43:32.777Z,56.94
2016-07-08T07:44:33.381Z,56.56
2016-07-08T07:45:33.366Z,56.56
2016-07-08T07:46:33.347Z,57.04
2016-07-08T07:47:32.721Z,57.04
2016-07-08T07:48:32.702Z,57.04
2016-07-08T07:49:33.303Z,56.56
2016-07-08T07:50:33.288Z,56.65
2016-07-08T07:51:33.267Z,56.84
2016-07-08T07:52:33.257Z,56.94
2016-07-08T07:53:33.232Z,57.04
2016-07-08T07:54:32.612Z,56.84
2016-07-08T07:55:32.593Z,56.84
2016-07-08T07:56:32.580Z,56.56
2016-07-08T07:57:33.176Z,56.74
2016-07-08T07:58:33.162Z,56.84
2016-07-08T07:59:33.147Z,56.56
2016-07-08T08:00:33.138Z,56.65
2016-07-08T08:01:33.121Z,56.74
2016-07-08T08:02:32.488Z,56.84
2016-07-08T08:03:33.083Z,56.46
2016-07-08T08:04:33.073Z,56.36
2016-07-08T08:05:33.051Z,56.65
2016-07-08T08:06:33.043Z,56.56
2016-07-08T08:07:33.021Z,57.04
2016-07-08T08:08:33.005Z,56.56
2016-07-08T08:09:32.992Z,57.14
2016-07-08T08:10:32.987Z,57.14
2016-07-08T08:11:32.967Z,56.74
2016-07-08T08:12:32.946Z,56.65
2016-07-08T08:13:32.931Z,56.46
2016-07-08T08:14:33.116Z,56.74
2016-07-08T08:15:32.901Z,56.58
2016-07-08T08:16:32.884Z,56.68
2016-07-08T08:17:32.870Z,56.2
2016-07-08T08:18:32.854Z,56.29
2016-07-08T08:19:32.229Z,56.39
2016-07-08T08:20:32.828Z,56.48
2016-07-08T08:21:32.812Z,56.58
2016-07-08T08:22:32.794Z,56.77
2016-07-08T08:23:32.170Z,56.96
2016-07-08T08:24:32.767Z,56.48
2016-07-08T08:25:32.142Z,56.68
2016-07-08T08:26:32.736Z,56.39
2016-07-08T08:27:32.734Z,56.39
2016-07-08T08:28:32.708Z,56.68
2016-07-08T08:29:32.698Z,56.48
2016-07-08T08:30:32.061Z,56.48
2016-07-08T08:31:32.064Z,56.48
2016-07-08T08:32:32.031Z,56.48
2016-07-08T08:33:32.662Z,56.58
2016-07-08T08:34:32.001Z,56.48
2016-07-08T08:35:32.605Z,56.58
2016-07-08T08:36:32.587Z,56.39
2016-07-08T08:37:31.959Z,56.48
2016-07-08T08:38:32.547Z,56.48
2016-07-08T08:39:32.539Z,56.39
2016-07-08T08:40:32.518Z,56.48
2016-07-08T08:41:32.518Z,56.48
2016-07-08T08:42:32.495Z,56.96
2016-07-08T08:43:31.865Z,56.39
2016-07-08T08:44:32.463Z,56.39
2016-07-08T08:45:32.454Z,56.1
2016-07-08T08:46:31.825Z,56.48
2016-07-08T08:47:31.801Z,56.77
2016-07-08T08:48:32.401Z,56.58
2016-07-08T08:49:32.389Z,56.68
2016-07-08T08:50:31.764Z,56.58
2016-07-08T08:51:32.354Z,56.77
2016-07-08T08:52:32.339Z,56.58
2016-07-08T08:53:32.326Z,56.77
2016-07-08T08:54:32.311Z,56.48
2016-07-08T08:55:32.294Z,56.48
2016-07-08T08:56:32.282Z,56.58
2016-07-08T08:57:32.266Z,56.58
2016-07-08T08:58:32.248Z,56.58
2016-07-08T08:59:31.623Z,57.06
2016-07-08T09:00:32.215Z,56.39
2016-07-08T09:01:32.208Z,56.48
2016-07-08T09:02:31.581Z,56.58
2016-07-08T09:03:32.176Z,56.87
2016-07-08T09:04:32.160Z,56.48
2016-07-08T09:05:32.148Z,56.48
2016-07-08T09:06:32.127Z,56.39
2016-07-08T09:07:32.109Z,56.1
2016-07-08T09:08:32.104Z,56.39
2016-07-08T09:09:31.469Z,56.48
2016-07-08T09:10:32.066Z,56.2
2016-07-08T09:11:32.068Z,56.68
2016-07-08T09:12:32.042Z,57.06
2016-07-08T09:13:32.021Z,56.68
2016-07-08T09:14:31.398Z,56.87
2016-07-08T09:15:32.000Z,56.58
2016-07-08T09:16:31.981Z,56.68
2016-07-08T09:17:31.960Z,56.96
2016-07-08T09:18:31.952Z,56.68
2016-07-08T09:19:31.944Z,56.77
2016-07-08T09:20:31.921Z,56.58
2016-07-08T09:21:31.903Z,56.96
2016-07-08T09:22:31.895Z,56.77
2016-07-08T09:23:31.890Z,57.35
2016-07-08T09:24:31.858Z,56.87
2016-07-08T09:25:31.853Z,56.68
2016-07-08T09:26:31.217Z,56.77
2016-07-08T09:27:31.821Z,56.96
2016-07-08T09:28:31.802Z,57.06
2016-07-08T09:29:31.791Z,57.16
2016-07-08T09:30:31.770Z,57.64
2016-07-08T09:31:31.756Z,57.06
2016-07-08T09:32:31.129Z,56.96
2016-07-08T09:33:31.732Z,56.96
2016-07-08T09:34:31.715Z,57.06
2016-07-08T09:35:31.697Z,56.58
2016-07-08T09:36:31.683Z,56.58
2016-07-08T09:37:31.051Z,56.96
2016-07-08T09:38:31.653Z,56.96
2016-07-08T09:39:31.637Z,57.06
2016-07-08T09:40:31.639Z,57.16
2016-07-08T09:41:31.607Z,56.87
2016-07-08T09:42:31.607Z,56.58
2016-07-08T09:43:31.578Z,57.06
2016-07-08T09:44:31.560Z,57.26
2016-07-08T09:45:30.932Z,57.06
2016-07-08T09:46:31.534Z,56.96
2016-07-08T09:47:31.518Z,56.77
2016-07-08T09:48:31.503Z,56.58
2016-07-08T09:49:31.491Z,56.48
2016-07-08T09:50:31.475Z,56.77
2016-07-08T09:51:31.459Z,57.06
2016-07-08T09:52:30.836Z,56.77
2016-07-08T09:53:31.429Z,57.16
2016-07-08T09:54:31.410Z,56.39
2016-07-08T09:55:31.403Z,56.68
2016-07-08T09:56:31.383Z,56.48
2016-07-08T09:57:31.359Z,56.68
2016-07-08T09:58:31.351Z,56.39
2016-07-08T09:59:31.336Z,56.58
2016-07-08T10:00:31.318Z,56.77
2016-07-08T10:01:31.316Z,56.77
2016-07-08T10:02:31.291Z,56.48
2016-07-08T10:03:30.662Z,56.68
2016-07-08T10:04:31.255Z,56.87
2016-07-08T10:05:30.634Z,56.96
2016-07-08T10:06:31.232Z,57.06
2016-07-08T10:07:31.221Z,56.87
2016-07-08T10:08:30.588Z,56.51
2016-07-08T10:09:31.226Z,56.58
2016-07-08T10:10:31.174Z,56.58
2016-07-08T10:11:31.164Z,56.58
2016-07-08T10:12:31.145Z,56.71
2016-07-08T10:13:31.130Z,56.51
2016-07-08T10:14:30.499Z,56.58
2016-07-08T10:15:30.486Z,56.51
2016-07-08T10:16:30.470Z,56.58
2016-07-08T10:17:31.065Z,56.39
2016-07-08T10:18:31.054Z,56.39
2016-07-08T10:19:30.427Z,56.58
2016-07-08T10:20:31.032Z,56.51
2016-07-08T10:21:30.394Z,56.39
2016-07-08T10:22:30.996Z,56.51
2016-07-08T10:23:30.982Z,56.1
2016-07-08T10:24:30.971Z,56.58
2016-07-08T10:25:30.946Z,56.58
2016-07-08T10:26:30.934Z,56.29
2016-07-08T10:27:30.916Z,56.48
2016-07-08T10:28:30.903Z,56.48
2016-07-08T10:29:30.897Z,56.39
2016-07-08T10:30:30.259Z,56.39
2016-07-08T10:31:30.865Z,55.9
2016-07-08T10:32:30.845Z,56.48
2016-07-08T10:33:30.828Z,56.51
2016-07-08T10:34:30.810Z,56.13
2016-07-08T10:35:30.184Z,55.81
2016-07-08T10:36:30.782Z,55.83
2016-07-08T10:37:30.772Z,56.2
2016-07-08T10:38:30.752Z,56.48
2016-07-08T10:39:30.743Z,56.1
2016-07-08T10:40:30.720Z,56.48
2016-07-08T10:41:30.711Z,56.39
2016-07-08T10:42:30.693Z,56.48
2016-07-08T10:43:30.686Z,56.68
2016-07-08T10:44:30.665Z,56.58
2016-07-08T10:45:30.040Z,56.96
2016-07-08T10:46:30.631Z,56.61
2016-07-08T10:47:30.622Z,56.51
2016-07-08T10:48:30.602Z,56
2016-07-08T10:49:30.596Z,56
2016-07-08T10:50:30.572Z,55.74
2016-07-08T10:51:29.948Z,55.93
2016-07-08T10:52:30.553Z,56.03
2016-07-08T10:53:30.529Z,55.81
2016-07-08T10:54:30.519Z,55.83
2016-07-08T10:55:30.500Z,55.9
2016-07-08T10:56:30.488Z,55.93
2016-07-08T10:57:30.472Z,55.93
2016-07-08T10:58:30.489Z,56.22
2016-07-08T10:59:30.452Z,55.55
2016-07-08T11:00:30.432Z,55.83
2016-07-08T11:01:30.417Z,55.74
2016-07-08T11:02:30.414Z,55.45
2016-07-08T11:03:30.386Z,55.83
2016-07-08T11:04:30.377Z,56.13
2016-07-08T11:05:29.745Z,55.93
2016-07-08T11:06:30.341Z,55.74
2016-07-08T11:07:30.336Z,55.45
2016-07-08T11:08:29.700Z,55.35
2016-07-08T11:09:30.296Z,55.45
2016-07-08T11:10:30.289Z,55.55
2016-07-08T11:11:30.272Z,55.45
2016-07-08T11:12:30.262Z,55.45
2016-07-08T11:13:29.631Z,55.55
2016-07-08T11:14:30.224Z,55.55
2016-07-08T11:15:30.211Z,55.65
2016-07-08T11:16:30.203Z,55.65
2016-07-08T11:17:30.189Z,55.45
2016-07-08T11:18:30.168Z,55.26
2016-07-08T11:19:30.159Z,55.74
2016-07-08T11:20:30.129Z,56.22
2016-07-08T11:21:29.509Z,55.74
2016-07-08T11:22:29.493Z,56.13
2016-07-08T11:23:30.094Z,55.65
2016-07-08T11:24:30.076Z,55.55
2016-07-08T11:25:30.074Z,55.65
2016-07-08T11:26:30.048Z,55.65
2016-07-08T11:27:30.036Z,55.55
2016-07-08T11:28:30.013Z,55.55
2016-07-08T11:29:30.009Z,55.65
2016-07-08T11:30:29.986Z,55.26
2016-07-08T11:31:29.978Z,55.93
2016-07-08T11:32:29.339Z,55.26
2016-07-08T11:33:29.936Z,55.74
2016-07-08T11:34:29.918Z,55.74
2016-07-08T11:35:29.928Z,55.55
2016-07-08T11:36:29.286Z,55.35
2016-07-08T11:37:29.270Z,55.55
2016-07-08T11:38:29.863Z,55.45
2016-07-08T11:39:29.252Z,55.55
2016-07-08T11:40:29.839Z,56.22
2016-07-08T11:41:29.831Z,55.93
2016-07-08T11:42:29.195Z,55.93
2016-07-08T11:43:29.792Z,55.45
2016-07-08T11:44:29.776Z,55.93
2016-07-08T11:45:29.143Z,55.93
2016-07-08T11:46:29.751Z,55.93
2016-07-08T11:47:29.742Z,55.45
2016-07-08T11:48:29.722Z,55.16
2016-07-08T11:49:29.710Z,56.03
2016-07-08T11:50:29.703Z,55.93
2016-07-08T11:51:29.675Z,55.83
2016-07-08T11:52:29.667Z,55.35
2016-07-08T11:53:29.653Z,55.74
2016-07-08T11:54:29.654Z,55.35
2016-07-08T11:55:29.618Z,55.74
2016-07-08T11:56:29.619Z,55.45
2016-07-08T11:57:29.591Z,55.35
2016-07-08T11:58:28.959Z,55.65
2016-07-08T11:59:29.574Z,55.74
2016-07-08T12:00:28.922Z,55.16
2016-07-08T12:01:28.911Z,55.16
2016-07-08T12:02:28.901Z,55.26
2016-07-08T12:03:29.501Z,55.26
2016-07-08T12:04:29.488Z,54.97
2016-07-08T12:05:29.472Z,55.26
2016-07-08T12:06:29.453Z,55.16
2016-07-08T12:07:29.457Z,55.26
2016-07-08T12:08:29.427Z,55.55
2016-07-08T12:09:29.423Z,55.26
2016-07-08T12:10:28.794Z,55.83
2016-07-08T12:11:28.767Z,54.97
2016-07-08T12:12:29.362Z,55.07
2016-07-08T12:13:29.359Z,55.07
2016-07-08T12:14:29.346Z,57.09
2016-07-08T12:15:29.331Z,54.8
2016-07-08T12:16:29.299Z,54.99
2016-07-08T12:17:28.684Z,55.07
2016-07-08T12:18:28.677Z,54.97
2016-07-08T12:19:29.257Z,54.97
2016-07-08T12:20:29.253Z,54.87
2016-07-08T12:21:29.245Z,54.87
2016-07-08T12:22:29.222Z,54.68
2016-07-08T12:23:28.596Z,54.99
2016-07-08T12:24:29.198Z,55.09
2016-07-08T12:25:29.165Z,54.71
2016-07-08T12:26:29.171Z,54.51
2016-07-08T12:27:29.157Z,54.41
2016-07-08T12:28:28.518Z,54.51
2016-07-08T12:29:29.132Z,54.61
2016-07-08T12:30:29.110Z,54.61
2016-07-08T12:31:29.089Z,54.41
2016-07-08T12:32:28.464Z,54.51
2016-07-08T12:33:29.066Z,54.51
2016-07-08T12:34:29.061Z,54.22
2016-07-08T12:35:29.055Z,54.71
2016-07-08T12:36:29.036Z,54.51
2016-07-08T12:37:29.012Z,54.13
2016-07-08T12:38:28.377Z,54.8
2016-07-08T12:39:28.970Z,54.8
2016-07-08T12:40:28.967Z,54.8
2016-07-08T12:41:28.949Z,54.8
2016-07-08T12:42:28.933Z,54.8
2016-07-08T12:43:28.909Z,54.77
2016-07-08T12:44:28.895Z,54.87
2016-07-08T12:45:28.283Z,54.68
2016-07-08T12:46:28.262Z,54.71
2016-07-08T12:47:28.859Z,54.71
2016-07-08T12:48:28.841Z,54.51
2016-07-08T12:49:28.822Z,54.61
2016-07-08T12:50:28.813Z,54.61
2016-07-08T12:51:28.173Z,54.61
2016-07-08T12:52:28.794Z,54.13
2016-07-08T12:53:28.158Z,54.71
2016-07-08T12:54:28.138Z,54.99
2016-07-08T12:55:28.735Z,54.68